sensor_id;sensor_type;location;lat;lon;timestamp;P1;durP1;ratioP1;P2;durP2;ratioP2
71806;SDS011;59655;42.590;23.364;2022-12-07T00:02:14;47.30;;;21.48;;
71806;SDS011;59655;42.590;23.364;2022-12-07T00:04:41;56.28;;;23.20;;
71806;SDS011;59655;42.590;23.364;2022-12-07T00:07:35;55.40;;;23.98;;
71806;SDS011;59655;42.590;23.364;2022-12-07T00:10:03;81.95;;;35.58;;
71806;SDS011;59655;42.590;23.364;2022-12-07T00:12:31;69.82;;;31.40;;
71806;SDS011;59655;42.590;23.364;2022-12-07T00:14:58;66.47;;;32.05;;
71806;SDS011;59655;42.590;23.364;2022-12-07T00:17:25;71.63;;;32.15;;
71806;SDS011;59655;42.590;23.364;2022-12-07T00:19:56;72.50;;;32.22;;
71806;SDS011;59655;42.590;23.364;2022-12-07T00:22:24;70.95;;;31.65;;
71806;SDS011;59655;42.590;23.364;2022-12-07T00:25:15;77.35;;;34.13;;
71806;SDS011;59655;42.590;23.364;2022-12-07T00:27:40;72.15;;;32.20;;
71806;SDS011;59655;42.590;23.364;2022-12-07T00:30:06;66.30;;;32.20;;
71806;SDS011;59655;42.590;23.364;2022-12-07T00:32:34;62.20;;;29.90;;
71806;SDS011;59655;42.590;23.364;2022-12-07T00:35:01;60.05;;;26.23;;
71806;SDS011;59655;42.590;23.364;2022-12-07T00:37:27;54.40;;;26.95;;
71806;SDS011;59655;42.590;23.364;2022-12-07T00:39:56;74.25;;;33.90;;
71806;SDS011;59655;42.590;23.364;2022-12-07T00:42:23;73.18;;;35.00;;
71806;SDS011;59655;42.590;23.364;2022-12-07T00:44:52;71.00;;;33.33;;
71806;SDS011;59655;42.590;23.364;2022-12-07T00:47:19;77.00;;;35.17;;
71806;SDS011;59655;42.590;23.364;2022-12-07T00:49:50;71.25;;;32.05;;
71806;SDS011;59655;42.590;23.364;2022-12-07T00:52:21;79.30;;;35.13;;
71806;SDS011;59655;42.590;23.364;2022-12-07T00:54:48;98.95;;;52.67;;
71806;SDS011;59655;42.590;23.364;2022-12-07T00:57:16;89.95;;;43.47;;
71806;SDS011;59655;42.590;23.364;2022-12-07T00:59:50;74.90;;;38.08;;
71806;SDS011;59655;42.590;23.364;2022-12-07T01:02:24;88.80;;;46.75;;
71806;SDS011;59655;42.590;23.364;2022-12-07T01:04:50;63.10;;;31.00;;
71806;SDS011;59655;42.590;23.364;2022-12-07T01:07:16;62.72;;;29.02;;
71806;SDS011;59655;42.590;23.364;2022-12-07T01:09:41;57.90;;;28.20;;
71806;SDS011;59655;42.590;23.364;2022-12-07T01:12:07;57.70;;;24.65;;
71806;SDS011;59655;42.590;23.364;2022-12-07T01:14:32;40.53;;;18.63;;
71806;SDS011;59655;42.590;23.364;2022-12-07T01:16:58;47.92;;;21.63;;
71806;SDS011;59655;42.590;23.364;2022-12-07T01:19:24;57.45;;;23.33;;
71806;SDS011;59655;42.590;23.364;2022-12-07T01:21:49;65.20;;;27.00;;
71806;SDS011;59655;42.590;23.364;2022-12-07T01:24:15;66.85;;;27.15;;
71806;SDS011;59655;42.590;23.364;2022-12-07T01:26:40;65.15;;;25.10;;
71806;SDS011;59655;42.590;23.364;2022-12-07T01:29:06;63.65;;;26.40;;
71806;SDS011;59655;42.590;23.364;2022-12-07T01:31:31;61.10;;;25.25;;
71806;SDS011;59655;42.590;23.364;2022-12-07T01:34:01;56.58;;;25.50;;
71806;SDS011;59655;42.590;23.364;2022-12-07T01:36:36;60.40;;;25.27;;
71806;SDS011;59655;42.590;23.364;2022-12-07T01:39:04;48.03;;;22.15;;
71806;SDS011;59655;42.590;23.364;2022-12-07T01:41:37;38.90;;;19.35;;
71806;SDS011;59655;42.590;23.364;2022-12-07T01:49:31;30.00;;;13.60;;
71806;SDS011;59655;42.590;23.364;2022-12-07T01:55:05;55.17;;;28.70;;
71806;SDS011;59655;42.590;23.364;2022-12-07T01:57:53;47.92;;;18.45;;
71806;SDS011;59655;42.590;23.364;2022-12-07T02:00:29;42.85;;;16.77;;
71806;SDS011;59655;42.590;23.364;2022-12-07T02:03:00;36.22;;;16.42;;
71806;SDS011;59655;42.590;23.364;2022-12-07T02:05:40;35.28;;;14.60;;
71806;SDS011;59655;42.590;23.364;2022-12-07T02:10:40;31.10;;;10.88;;
71806;SDS011;59655;42.590;23.364;2022-12-07T02:13:20;29.45;;;12.80;;
71806;SDS011;59655;42.590;23.364;2022-12-07T02:25:33;37.63;;;18.33;;
71806;SDS011;59655;42.590;23.364;2022-12-07T02:45:59;38.42;;;15.52;;
71806;SDS011;59655;42.590;23.364;2022-12-07T02:48:37;31.65;;;15.85;;
71806;SDS011;59655;42.590;23.364;2022-12-07T02:51:11;30.88;;;15.43;;
71806;SDS011;59655;42.590;23.364;2022-12-07T03:01:59;35.50;;;13.90;;
71806;SDS011;59655;42.590;23.364;2022-12-07T03:10:59;36.53;;;14.55;;
71806;SDS011;59655;42.590;23.364;2022-12-07T03:13:41;38.80;;;14.80;;
71806;SDS011;59655;42.590;23.364;2022-12-07T03:16:53;38.15;;;16.45;;
71806;SDS011;59655;42.590;23.364;2022-12-07T03:19:46;50.42;;;22.35;;
71806;SDS011;59655;42.590;23.364;2022-12-07T03:22:39;45.00;;;21.13;;
71806;SDS011;59655;42.590;23.364;2022-12-07T03:25:10;102.95;;;60.13;;
71806;SDS011;59655;42.590;23.364;2022-12-07T03:28:02;51.70;;;25.92;;
71806;SDS011;59655;42.590;23.364;2022-12-07T03:36:25;45.42;;;19.15;;
71806;SDS011;59655;42.590;23.364;2022-12-07T03:39:07;53.95;;;20.33;;
71806;SDS011;59655;42.590;23.364;2022-12-07T03:41:34;50.50;;;19.65;;
71806;SDS011;59655;42.590;23.364;2022-12-07T03:44:03;49.05;;;19.00;;
71806;SDS011;59655;42.590;23.364;2022-12-07T03:46:44;53.33;;;20.20;;
71806;SDS011;59655;42.590;23.364;2022-12-07T03:57:51;45.25;;;16.98;;
71806;SDS011;59655;42.590;23.364;2022-12-07T04:00:20;32.42;;;14.60;;
71806;SDS011;59655;42.590;23.364;2022-12-07T04:02:46;28.20;;;11.40;;
71806;SDS011;59655;42.590;23.364;2022-12-07T04:05:32;32.67;;;14.63;;
71806;SDS011;59655;42.590;23.364;2022-12-07T04:08:00;36.05;;;15.43;;
71806;SDS011;59655;42.590;23.364;2022-12-07T04:10:35;53.95;;;22.63;;
71806;SDS011;59655;42.590;23.364;2022-12-07T04:13:10;67.53;;;26.67;;
71806;SDS011;59655;42.590;23.364;2022-12-07T04:15:38;68.63;;;29.40;;
71806;SDS011;59655;42.590;23.364;2022-12-07T04:18:39;49.00;;;25.45;;
71806;SDS011;59655;42.590;23.364;2022-12-07T04:21:06;49.10;;;23.70;;
71806;SDS011;59655;42.590;23.364;2022-12-07T04:23:36;49.30;;;22.55;;
71806;SDS011;59655;42.590;23.364;2022-12-07T04:26:01;44.28;;;17.67;;
71806;SDS011;59655;42.590;23.364;2022-12-07T04:28:26;43.42;;;19.65;;
71806;SDS011;59655;42.590;23.364;2022-12-07T04:30:54;56.03;;;22.90;;
71806;SDS011;59655;42.590;23.364;2022-12-07T04:33:21;66.07;;;26.00;;
71806;SDS011;59655;42.590;23.364;2022-12-07T04:35:47;56.90;;;27.48;;
71806;SDS011;59655;42.590;23.364;2022-12-07T04:38:13;80.60;;;34.83;;
71806;SDS011;59655;42.590;23.364;2022-12-07T04:40:45;50.47;;;23.65;;
71806;SDS011;59655;42.590;23.364;2022-12-07T04:43:16;57.70;;;25.27;;
71806;SDS011;59655;42.590;23.364;2022-12-07T04:45:45;52.30;;;24.50;;
71806;SDS011;59655;42.590;23.364;2022-12-07T04:48:11;52.70;;;25.10;;
71806;SDS011;59655;42.590;23.364;2022-12-07T04:50:37;64.95;;;31.63;;
71806;SDS011;59655;42.590;23.364;2022-12-07T04:53:03;65.07;;;29.77;;
71806;SDS011;59655;42.590;23.364;2022-12-07T04:55:28;59.35;;;28.80;;
71806;SDS011;59655;42.590;23.364;2022-12-07T04:57:56;67.22;;;30.90;;
71806;SDS011;59655;42.590;23.364;2022-12-07T05:00:31;70.95;;;31.98;;
71806;SDS011;59655;42.590;23.364;2022-12-07T05:02:58;59.72;;;28.77;;
71806;SDS011;59655;42.590;23.364;2022-12-07T05:05:40;59.70;;;27.77;;
71806;SDS011;59655;42.590;23.364;2022-12-07T05:08:13;87.88;;;41.88;;
71806;SDS011;59655;42.590;23.364;2022-12-07T05:10:43;50.78;;;22.33;;
71806;SDS011;59655;42.590;23.364;2022-12-07T05:13:10;31.50;;;14.88;;
71806;SDS011;59655;42.590;23.364;2022-12-07T05:15:36;28.35;;;12.60;;
71806;SDS011;59655;42.590;23.364;2022-12-07T05:18:03;52.42;;;23.75;;
71806;SDS011;59655;42.590;23.364;2022-12-07T05:20:51;63.08;;;31.67;;
71806;SDS011;59655;42.590;23.364;2022-12-07T05:23:22;54.38;;;26.52;;
71806;SDS011;59655;42.590;23.364;2022-12-07T05:25:53;46.30;;;21.60;;
71806;SDS011;59655;42.590;23.364;2022-12-07T05:28:19;40.38;;;19.27;;
71806;SDS011;59655;42.590;23.364;2022-12-07T05:30:45;46.53;;;22.05;;
71806;SDS011;59655;42.590;23.364;2022-12-07T05:33:14;40.30;;;19.17;;
71806;SDS011;59655;42.590;23.364;2022-12-07T05:35:45;28.98;;;13.13;;
71806;SDS011;59655;42.590;23.364;2022-12-07T05:38:13;33.92;;;14.80;;
71806;SDS011;59655;42.590;23.364;2022-12-07T05:40:38;32.35;;;16.27;;
71806;SDS011;59655;42.590;23.364;2022-12-07T05:43:08;37.20;;;14.70;;
71806;SDS011;59655;42.590;23.364;2022-12-07T05:45:38;38.45;;;14.95;;
71806;SDS011;59655;42.590;23.364;2022-12-07T05:48:13;35.88;;;15.25;;
71806;SDS011;59655;42.590;23.364;2022-12-07T05:50:39;43.90;;;21.92;;
71806;SDS011;59655;42.590;23.364;2022-12-07T05:53:08;40.83;;;20.60;;
71806;SDS011;59655;42.590;23.364;2022-12-07T05:55:36;40.25;;;20.60;;
71806;SDS011;59655;42.590;23.364;2022-12-07T05:58:16;59.45;;;27.60;;
71806;SDS011;59655;42.590;23.364;2022-12-07T06:01:12;52.08;;;26.55;;
71806;SDS011;59655;42.590;23.364;2022-12-07T06:03:40;63.17;;;27.13;;
71806;SDS011;59655;42.590;23.364;2022-12-07T06:06:15;86.13;;;43.90;;
71806;SDS011;59655;42.590;23.364;2022-12-07T06:08:47;79.65;;;35.95;;
71806;SDS011;59655;42.590;23.364;2022-12-07T06:11:21;77.40;;;31.70;;
71806;SDS011;59655;42.590;23.364;2022-12-07T06:14:09;57.70;;;26.50;;
71806;SDS011;59655;42.590;23.364;2022-12-07T06:16:39;38.33;;;20.45;;
71806;SDS011;59655;42.590;23.364;2022-12-07T06:19:16;30.20;;;15.13;;
71806;SDS011;59655;42.590;23.364;2022-12-07T06:21:50;36.00;;;18.70;;
71806;SDS011;59655;42.590;23.364;2022-12-07T06:24:17;64.20;;;30.38;;
71806;SDS011;59655;42.590;23.364;2022-12-07T06:26:44;60.88;;;31.17;;
71806;SDS011;59655;42.590;23.364;2022-12-07T06:29:13;62.17;;;33.33;;
71806;SDS011;59655;42.590;23.364;2022-12-07T06:31:40;60.53;;;29.75;;
71806;SDS011;59655;42.590;23.364;2022-12-07T06:34:15;77.75;;;43.08;;
71806;SDS011;59655;42.590;23.364;2022-12-07T06:36:46;52.83;;;23.67;;
71806;SDS011;59655;42.590;23.364;2022-12-07T06:39:20;68.47;;;37.10;;
71806;SDS011;59655;42.590;23.364;2022-12-07T06:41:49;74.93;;;36.60;;
71806;SDS011;59655;42.590;23.364;2022-12-07T06:44:21;71.32;;;37.15;;
71806;SDS011;59655;42.590;23.364;2022-12-07T06:46:54;47.42;;;21.92;;
71806;SDS011;59655;42.590;23.364;2022-12-07T06:49:28;40.47;;;19.30;;
71806;SDS011;59655;42.590;23.364;2022-12-07T06:51:56;37.30;;;17.02;;
71806;SDS011;59655;42.590;23.364;2022-12-07T06:54:25;37.58;;;17.10;;
71806;SDS011;59655;42.590;23.364;2022-12-07T06:56:52;46.00;;;22.25;;
71806;SDS011;59655;42.590;23.364;2022-12-07T06:59:18;52.33;;;26.70;;
71806;SDS011;59655;42.590;23.364;2022-12-07T07:01:45;49.90;;;26.13;;
71806;SDS011;59655;42.590;23.364;2022-12-07T07:04:13;51.15;;;25.92;;
71806;SDS011;59655;42.590;23.364;2022-12-07T07:06:40;50.45;;;25.10;;
71806;SDS011;59655;42.590;23.364;2022-12-07T07:09:06;97.97;;;42.10;;
71806;SDS011;59655;42.590;23.364;2022-12-07T07:11:34;82.32;;;39.20;;
71806;SDS011;59655;42.590;23.364;2022-12-07T07:14:06;68.20;;;31.05;;
71806;SDS011;59655;42.590;23.364;2022-12-07T07:16:35;69.50;;;32.70;;
71806;SDS011;59655;42.590;23.364;2022-12-07T07:19:02;65.40;;;31.45;;
71806;SDS011;59655;42.590;23.364;2022-12-07T07:21:29;81.57;;;37.40;;
71806;SDS011;59655;42.590;23.364;2022-12-07T07:23:58;91.97;;;47.45;;
71806;SDS011;59655;42.590;23.364;2022-12-07T07:26:23;83.65;;;42.35;;
71806;SDS011;59655;42.590;23.364;2022-12-07T07:28:49;105.47;;;49.80;;
71806;SDS011;59655;42.590;23.364;2022-12-07T07:31:14;137.00;;;62.78;;
71806;SDS011;59655;42.590;23.364;2022-12-07T07:33:40;107.80;;;51.45;;
71806;SDS011;59655;42.590;23.364;2022-12-07T07:36:05;71.63;;;34.78;;
71806;SDS011;59655;42.590;23.364;2022-12-07T07:38:31;55.83;;;25.35;;
71806;SDS011;59655;42.590;23.364;2022-12-07T07:40:56;43.00;;;19.85;;
71806;SDS011;59655;42.590;23.364;2022-12-07T07:43:21;47.90;;;19.42;;
71806;SDS011;59655;42.590;23.364;2022-12-07T07:45:47;45.50;;;18.73;;
71806;SDS011;59655;42.590;23.364;2022-12-07T07:48:12;46.25;;;18.98;;
71806;SDS011;59655;42.590;23.364;2022-12-07T07:50:39;52.60;;;21.27;;
71806;SDS011;59655;42.590;23.364;2022-12-07T07:53:12;44.45;;;18.42;;
71806;SDS011;59655;42.590;23.364;2022-12-07T07:55:38;49.40;;;19.83;;
71806;SDS011;59655;42.590;23.364;2022-12-07T07:58:04;51.70;;;20.70;;
71806;SDS011;59655;42.590;23.364;2022-12-07T08:00:31;45.88;;;20.23;;
71806;SDS011;59655;42.590;23.364;2022-12-07T08:02:57;45.17;;;19.35;;
71806;SDS011;59655;42.590;23.364;2022-12-07T08:05:25;50.03;;;19.33;;
71806;SDS011;59655;42.590;23.364;2022-12-07T08:07:50;47.30;;;19.77;;
71806;SDS011;59655;42.590;23.364;2022-12-07T08:10:16;66.47;;;26.95;;
71806;SDS011;59655;42.590;23.364;2022-12-07T08:12:42;71.43;;;29.73;;
71806;SDS011;59655;42.590;23.364;2022-12-07T08:15:27;83.47;;;34.30;;
71806;SDS011;59655;42.590;23.364;2022-12-07T08:17:53;77.32;;;31.65;;
71806;SDS011;59655;42.590;23.364;2022-12-07T08:20:20;67.20;;;30.73;;
71806;SDS011;59655;42.590;23.364;2022-12-07T08:22:46;54.72;;;22.08;;
71806;SDS011;59655;42.590;23.364;2022-12-07T08:25:11;49.97;;;20.70;;
71806;SDS011;59655;42.590;23.364;2022-12-07T08:27:38;51.75;;;23.88;;
71806;SDS011;59655;42.590;23.364;2022-12-07T08:30:06;48.60;;;21.77;;
71806;SDS011;59655;42.590;23.364;2022-12-07T08:32:31;52.53;;;21.88;;
71806;SDS011;59655;42.590;23.364;2022-12-07T08:34:57;48.97;;;22.25;;
71806;SDS011;59655;42.590;23.364;2022-12-07T08:37:26;43.40;;;17.85;;
71806;SDS011;59655;42.590;23.364;2022-12-07T08:39:53;37.22;;;15.77;;
71806;SDS011;59655;42.590;23.364;2022-12-07T08:42:20;35.33;;;15.63;;
71806;SDS011;59655;42.590;23.364;2022-12-07T08:44:52;42.75;;;17.65;;
71806;SDS011;59655;42.590;23.364;2022-12-07T08:47:23;52.25;;;20.35;;
71806;SDS011;59655;42.590;23.364;2022-12-07T08:49:58;57.90;;;21.80;;
71806;SDS011;59655;42.590;23.364;2022-12-07T08:52:28;55.72;;;19.77;;
71806;SDS011;59655;42.590;23.364;2022-12-07T08:54:56;62.60;;;22.90;;
71806;SDS011;59655;42.590;23.364;2022-12-07T08:57:35;63.72;;;24.77;;
71806;SDS011;59655;42.590;23.364;2022-12-07T09:00:07;56.17;;;22.20;;
71806;SDS011;59655;42.590;23.364;2022-12-07T09:02:34;54.00;;;21.63;;
71806;SDS011;59655;42.590;23.364;2022-12-07T09:05:09;57.97;;;24.20;;
71806;SDS011;59655;42.590;23.364;2022-12-07T09:07:35;58.30;;;23.73;;
71806;SDS011;59655;42.590;23.364;2022-12-07T09:10:02;61.63;;;23.00;;
71806;SDS011;59655;42.590;23.364;2022-12-07T09:12:32;61.78;;;26.45;;
71806;SDS011;59655;42.590;23.364;2022-12-07T09:14:58;72.70;;;28.75;;
71806;SDS011;59655;42.590;23.364;2022-12-07T09:17:33;66.65;;;26.90;;
71806;SDS011;59655;42.590;23.364;2022-12-07T09:20:06;66.93;;;27.67;;
71806;SDS011;59655;42.590;23.364;2022-12-07T09:22:40;67.85;;;25.23;;
71806;SDS011;59655;42.590;23.364;2022-12-07T09:25:09;63.88;;;24.48;;
71806;SDS011;59655;42.590;23.364;2022-12-07T09:27:37;63.58;;;26.80;;
71806;SDS011;59655;42.590;23.364;2022-12-07T09:30:07;60.72;;;24.48;;
71806;SDS011;59655;42.590;23.364;2022-12-07T09:32:33;67.07;;;25.15;;
71806;SDS011;59655;42.590;23.364;2022-12-07T09:34:58;66.72;;;24.33;;
71806;SDS011;59655;42.590;23.364;2022-12-07T09:37:24;71.35;;;25.92;;
71806;SDS011;59655;42.590;23.364;2022-12-07T09:39:49;74.72;;;27.27;;
71806;SDS011;59655;42.590;23.364;2022-12-07T09:42:37;79.95;;;27.40;;
71806;SDS011;59655;42.590;23.364;2022-12-07T09:45:02;73.43;;;27.08;;
71806;SDS011;59655;42.590;23.364;2022-12-07T09:47:30;76.65;;;27.58;;
71806;SDS011;59655;42.590;23.364;2022-12-07T09:49:58;96.00;;;48.95;;
71806;SDS011;59655;42.590;23.364;2022-12-07T09:52:29;76.47;;;32.85;;
71806;SDS011;59655;42.590;23.364;2022-12-07T09:54:55;76.22;;;27.52;;
71806;SDS011;59655;42.590;23.364;2022-12-07T09:57:25;93.93;;;39.97;;
71806;SDS011;59655;42.590;23.364;2022-12-07T09:59:56;81.57;;;37.33;;
71806;SDS011;59655;42.590;23.364;2022-12-07T10:05:05;62.42;;;26.70;;
71806;SDS011;59655;42.590;23.364;2022-12-07T10:07:33;47.10;;;19.42;;
71806;SDS011;59655;42.590;23.364;2022-12-07T10:09:58;35.60;;;14.30;;
71806;SDS011;59655;42.590;23.364;2022-12-07T10:12:23;26.13;;;11.52;;
71806;SDS011;59655;42.590;23.364;2022-12-07T10:14:56;31.88;;;11.70;;
71806;SDS011;59655;42.590;23.364;2022-12-07T10:25:33;35.55;;;12.80;;
71806;SDS011;59655;42.590;23.364;2022-12-07T10:28:21;31.05;;;12.30;;
71806;SDS011;59655;42.590;23.364;2022-12-07T10:35:57;24.52;;;9.13;;
71806;SDS011;59655;42.590;23.364;2022-12-07T10:38:24;21.08;;;8.57;;
71806;SDS011;59655;42.590;23.364;2022-12-07T10:43:37;24.90;;;9.00;;
71806;SDS011;59655;42.590;23.364;2022-12-07T10:49:29;22.00;;;9.45;;
71806;SDS011;59655;42.590;23.364;2022-12-07T11:00:04;33.88;;;12.40;;
71806;SDS011;59655;42.590;23.364;2022-12-07T11:02:45;32.30;;;10.52;;
71806;SDS011;59655;42.590;23.364;2022-12-07T11:08:32;31.67;;;11.70;;
71806;SDS011;59655;42.590;23.364;2022-12-07T11:11:16;33.08;;;10.45;;
71806;SDS011;59655;42.590;23.364;2022-12-07T11:22:20;37.20;;;12.77;;
71806;SDS011;59655;42.590;23.364;2022-12-07T11:24:59;46.67;;;17.27;;
71806;SDS011;59655;42.590;23.364;2022-12-07T11:27:47;42.20;;;16.48;;
71806;SDS011;59655;42.590;23.364;2022-12-07T11:30:24;39.03;;;13.77;;
71806;SDS011;59655;42.590;23.364;2022-12-07T11:33:11;33.50;;;13.52;;
71806;SDS011;59655;42.590;23.364;2022-12-07T11:38:16;42.97;;;15.32;;
71806;SDS011;59655;42.590;23.364;2022-12-07T11:40:50;51.05;;;18.27;;
71806;SDS011;59655;42.590;23.364;2022-12-07T11:43:31;57.53;;;22.65;;
71806;SDS011;59655;42.590;23.364;2022-12-07T11:48:38;43.15;;;16.83;;
71806;SDS011;59655;42.590;23.364;2022-12-07T11:51:26;42.92;;;15.50;;
71806;SDS011;59655;42.590;23.364;2022-12-07T11:53:55;52.30;;;17.33;;
71806;SDS011;59655;42.590;23.364;2022-12-07T11:56:25;55.08;;;19.75;;
71806;SDS011;59655;42.590;23.364;2022-12-07T12:04:55;42.20;;;17.23;;
71806;SDS011;59655;42.590;23.364;2022-12-07T12:07:27;55.20;;;20.27;;
71806;SDS011;59655;42.590;23.364;2022-12-07T12:10:02;54.88;;;21.75;;
71806;SDS011;59655;42.590;23.364;2022-12-07T12:12:55;35.40;;;14.57;;
71806;SDS011;59655;42.590;23.364;2022-12-07T12:18:39;30.77;;;11.63;;
71806;SDS011;59655;42.590;23.364;2022-12-07T12:21:28;24.95;;;10.43;;
71806;SDS011;59655;42.590;23.364;2022-12-07T12:23:59;45.45;;;20.75;;
71806;SDS011;59655;42.590;23.364;2022-12-07T12:26:32;40.40;;;17.55;;
71806;SDS011;59655;42.590;23.364;2022-12-07T12:29:45;58.20;;;23.58;;
71806;SDS011;59655;42.590;23.364;2022-12-07T12:32:35;44.30;;;18.27;;
71806;SDS011;59655;42.590;23.364;2022-12-07T12:35:27;45.83;;;16.05;;
71806;SDS011;59655;42.590;23.364;2022-12-07T12:40:52;143.20;;;44.80;;
71806;SDS011;59655;42.590;23.364;2022-12-07T12:54:35;59.22;;;19.20;;
71806;SDS011;59655;42.590;23.364;2022-12-07T12:57:23;42.90;;;16.90;;
71806;SDS011;59655;42.590;23.364;2022-12-07T12:59:58;44.35;;;15.32;;
71806;SDS011;59655;42.590;23.364;2022-12-07T13:05:33;44.28;;;14.52;;
71806;SDS011;59655;42.590;23.364;2022-12-07T13:15:39;55.10;;;16.17;;
71806;SDS011;59655;42.590;23.364;2022-12-07T13:20:54;44.83;;;15.68;;
71806;SDS011;59655;42.590;23.364;2022-12-07T13:23:27;54.30;;;16.27;;
71806;SDS011;59655;42.590;23.364;2022-12-07T13:26:04;58.75;;;17.80;;
71806;SDS011;59655;42.590;23.364;2022-12-07T13:28:37;44.60;;;16.05;;
71806;SDS011;59655;42.590;23.364;2022-12-07T13:34:00;37.42;;;14.02;;
71806;SDS011;59655;42.590;23.364;2022-12-07T13:37:01;45.03;;;14.75;;
71806;SDS011;59655;42.590;23.364;2022-12-07T13:39:20;45.97;;;13.05;;
71806;SDS011;59655;42.590;23.364;2022-12-07T13:41:54;44.65;;;14.23;;
71806;SDS011;59655;42.590;23.364;2022-12-07T13:44:22;32.20;;;12.23;;
71806;SDS011;59655;42.590;23.364;2022-12-07T13:49:27;46.03;;;16.73;;
71806;SDS011;59655;42.590;23.364;2022-12-07T13:51:55;45.40;;;16.40;;
71806;SDS011;59655;42.590;23.364;2022-12-07T13:54:45;47.15;;;16.77;;
71806;SDS011;59655;42.590;23.364;2022-12-07T13:57:27;56.80;;;20.20;;
71806;SDS011;59655;42.590;23.364;2022-12-07T13:59:55;53.75;;;20.05;;
71806;SDS011;59655;42.590;23.364;2022-12-07T14:02:23;49.05;;;20.15;;
71806;SDS011;59655;42.590;23.364;2022-12-07T14:04:50;50.30;;;20.58;;
71806;SDS011;59655;42.590;23.364;2022-12-07T14:09:56;59.00;;;19.83;;
71806;SDS011;59655;42.590;23.364;2022-12-07T14:12:29;90.43;;;32.88;;
71806;SDS011;59655;42.590;23.364;2022-12-07T14:14:56;204.98;;;72.05;;
71806;SDS011;59655;42.590;23.364;2022-12-07T14:17:24;169.02;;;60.45;;
71806;SDS011;59655;42.590;23.364;2022-12-07T14:19:55;118.63;;;45.67;;
71806;SDS011;59655;42.590;23.364;2022-12-07T14:22:35;108.60;;;44.75;;
71806;SDS011;59655;42.590;23.364;2022-12-07T14:25:22;156.00;;;63.03;;
71806;SDS011;59655;42.590;23.364;2022-12-07T14:27:59;122.88;;;48.70;;
71806;SDS011;59655;42.590;23.364;2022-12-07T14:30:29;95.97;;;35.45;;
71806;SDS011;59655;42.590;23.364;2022-12-07T14:33:07;63.88;;;24.42;;
71806;SDS011;59655;42.590;23.364;2022-12-07T14:35:33;45.60;;;17.88;;
71806;SDS011;59655;42.590;23.364;2022-12-07T14:37:58;36.83;;;14.20;;
71806;SDS011;59655;42.590;23.364;2022-12-07T14:40:25;30.77;;;10.70;;
71806;SDS011;59655;42.590;23.364;2022-12-07T14:42:54;33.67;;;16.77;;
71806;SDS011;59655;42.590;23.364;2022-12-07T14:45:23;32.95;;;15.40;;
71806;SDS011;59655;42.590;23.364;2022-12-07T14:47:49;40.60;;;17.40;;
71806;SDS011;59655;42.590;23.364;2022-12-07T14:50:16;28.23;;;12.40;;
71806;SDS011;59655;42.590;23.364;2022-12-07T14:52:43;24.35;;;9.90;;
71806;SDS011;59655;42.590;23.364;2022-12-07T14:55:19;27.63;;;10.57;;
71806;SDS011;59655;42.590;23.364;2022-12-07T14:57:48;25.73;;;10.45;;
71806;SDS011;59655;42.590;23.364;2022-12-07T15:00:14;27.73;;;10.48;;
71806;SDS011;59655;42.590;23.364;2022-12-07T15:02:42;27.42;;;15.20;;
71806;SDS011;59655;42.590;23.364;2022-12-07T15:05:08;27.15;;;12.48;;
71806;SDS011;59655;42.590;23.364;2022-12-07T15:07:33;32.42;;;13.57;;
71806;SDS011;59655;42.590;23.364;2022-12-07T15:09:59;49.65;;;19.60;;
71806;SDS011;59655;42.590;23.364;2022-12-07T15:12:24;90.55;;;35.55;;
71806;SDS011;59655;42.590;23.364;2022-12-07T15:14:50;37.60;;;20.17;;
71806;SDS011;59655;42.590;23.364;2022-12-07T15:17:15;24.88;;;10.82;;
71806;SDS011;59655;42.590;23.364;2022-12-07T15:19:41;24.25;;;10.20;;
71806;SDS011;59655;42.590;23.364;2022-12-07T15:22:07;26.90;;;10.48;;
71806;SDS011;59655;42.590;23.364;2022-12-07T15:24:33;37.75;;;17.17;;
71806;SDS011;59655;42.590;23.364;2022-12-07T15:26:59;39.83;;;17.13;;
71806;SDS011;59655;42.590;23.364;2022-12-07T15:29:24;48.38;;;17.67;;
71806;SDS011;59655;42.590;23.364;2022-12-07T15:31:51;54.42;;;24.30;;
71806;SDS011;59655;42.590;23.364;2022-12-07T15:34:17;53.38;;;22.98;;
71806;SDS011;59655;42.590;23.364;2022-12-07T15:36:43;59.55;;;26.25;;
71806;SDS011;59655;42.590;23.364;2022-12-07T15:39:09;63.72;;;28.27;;
71806;SDS011;59655;42.590;23.364;2022-12-07T15:41:35;69.20;;;31.40;;
71806;SDS011;59655;42.590;23.364;2022-12-07T15:44:01;94.90;;;37.75;;
71806;SDS011;59655;42.590;23.364;2022-12-07T15:46:45;63.33;;;26.17;;
71806;SDS011;59655;42.590;23.364;2022-12-07T15:49:14;76.70;;;35.30;;
71806;SDS011;59655;42.590;23.364;2022-12-07T15:51:42;147.15;;;57.72;;
71806;SDS011;59655;42.590;23.364;2022-12-07T15:54:11;233.98;;;89.60;;
71806;SDS011;59655;42.590;23.364;2022-12-07T15:56:44;236.02;;;94.32;;
71806;SDS011;59655;42.590;23.364;2022-12-07T15:59:09;156.93;;;65.45;;
71806;SDS011;59655;42.590;23.364;2022-12-07T16:01:35;78.60;;;29.90;;
71806;SDS011;59655;42.590;23.364;2022-12-07T16:04:00;60.88;;;25.77;;
71806;SDS011;59655;42.590;23.364;2022-12-07T16:06:25;38.63;;;15.77;;
71806;SDS011;59655;42.590;23.364;2022-12-07T16:08:51;53.10;;;24.05;;
71806;SDS011;59655;42.590;23.364;2022-12-07T16:11:17;209.68;;;80.05;;
71806;SDS011;59655;42.590;23.364;2022-12-07T16:13:42;212.20;;;83.75;;
71806;SDS011;59655;42.590;23.364;2022-12-07T16:16:12;226.75;;;90.00;;
71806;SDS011;59655;42.590;23.364;2022-12-07T16:18:38;176.32;;;69.07;;
71806;SDS011;59655;42.590;23.364;2022-12-07T16:21:04;143.80;;;59.10;;
71806;SDS011;59655;42.590;23.364;2022-12-07T16:23:29;144.65;;;59.30;;
71806;SDS011;59655;42.590;23.364;2022-12-07T16:26:02;159.43;;;68.63;;
71806;SDS011;59655;42.590;23.364;2022-12-07T16:28:32;65.03;;;28.10;;
71806;SDS011;59655;42.590;23.364;2022-12-07T16:31:01;120.93;;;53.80;;
71806;SDS011;59655;42.590;23.364;2022-12-07T16:33:28;146.40;;;60.85;;
71806;SDS011;59655;42.590;23.364;2022-12-07T16:35:53;122.97;;;54.63;;
71806;SDS011;59655;42.590;23.364;2022-12-07T16:38:19;148.25;;;66.78;;
71806;SDS011;59655;42.590;23.364;2022-12-07T16:40:44;150.70;;;66.85;;
71806;SDS011;59655;42.590;23.364;2022-12-07T16:43:12;59.08;;;27.90;;
71806;SDS011;59655;42.590;23.364;2022-12-07T16:45:38;42.92;;;19.23;;
71806;SDS011;59655;42.590;23.364;2022-12-07T16:48:04;100.82;;;43.15;;
71806;SDS011;59655;42.590;23.364;2022-12-07T16:50:30;105.47;;;42.72;;
71806;SDS011;59655;42.590;23.364;2022-12-07T16:52:55;87.30;;;38.05;;
71806;SDS011;59655;42.590;23.364;2022-12-07T16:55:20;64.43;;;25.23;;
71806;SDS011;59655;42.590;23.364;2022-12-07T16:57:46;41.75;;;17.60;;
71806;SDS011;59655;42.590;23.364;2022-12-07T17:00:11;44.45;;;20.42;;
71806;SDS011;59655;42.590;23.364;2022-12-07T17:02:37;31.50;;;15.98;;
71806;SDS011;59655;42.590;23.364;2022-12-07T17:05:02;32.13;;;13.00;;
71806;SDS011;59655;42.590;23.364;2022-12-07T17:07:28;32.17;;;11.65;;
71806;SDS011;59655;42.590;23.364;2022-12-07T17:09:53;25.35;;;10.07;;